sensor_id;sensor_type;location;lat;lon;timestamp;pressure;altitude;pressure_sealevel;temperature;humidity
68807;BME280;55800;54.272;18.558;2023-04-26T00:00:11;100156.09;;;6.30;57.33
68807;BME280;55800;54.272;18.558;2023-04-26T00:03:00;100151.41;;;6.39;57.09
68807;BME280;55800;54.272;18.558;2023-04-26T00:05:31;100155.88;;;6.38;56.79
68807;BME280;55800;54.272;18.558;2023-04-26T00:08:01;100151.59;;;6.32;57.01
68807;BME280;55800;54.272;18.558;2023-04-26T00:10:30;100150.72;;;6.32;57.02
68807;BME280;55800;54.272;18.558;2023-04-26T00:13:01;100159.03;;;6.21;57.34
68807;BME280;55800;54.272;18.558;2023-04-26T00:15:30;100149.56;;;6.14;57.38
68807;BME280;55800;54.272;18.558;2023-04-26T00:17:59;100156.00;;;6.06;57.54
68807;BME280;55800;54.272;18.558;2023-04-26T00:20:29;100155.06;;;6.08;57.11
68807;BME280;55800;54.272;18.558;2023-04-26T00:22:57;100153.16;;;6.12;57.98
68807;BME280;55800;54.272;18.558;2023-04-26T00:25:27;100155.00;;;6.10;57.94
68807;BME280;55800;54.272;18.558;2023-04-26T00:27:56;100155.97;;;6.07;58.10
68807;BME280;55800;54.272;18.558;2023-04-26T00:30:26;100150.72;;;6.04;58.53
68807;BME280;55800;54.272;18.558;2023-04-26T00:32:55;100149.22;;;5.97;58.77
68807;BME280;55800;54.272;18.558;2023-04-26T00:35:24;100145.69;;;5.97;58.51
68807;BME280;55800;54.272;18.558;2023-04-26T00:37:54;100146.00;;;5.86;58.56
68807;BME280;55800;54.272;18.558;2023-04-26T00:40:23;100145.94;;;5.88;58.33
68807;BME280;55800;54.272;18.558;2023-04-26T00:42:55;100137.09;;;5.89;58.77
68807;BME280;55800;54.272;18.558;2023-04-26T00:45:27;100142.44;;;5.87;58.91
68807;BME280;55800;54.272;18.558;2023-04-26T00:47:56;100139.75;;;5.89;58.66
68807;BME280;55800;54.272;18.558;2023-04-26T00:50:26;100145.28;;;5.80;58.37
68807;BME280;55800;54.272;18.558;2023-04-26T00:52:55;100140.84;;;5.80;58.64
68807;BME280;55800;54.272;18.558;2023-04-26T00:55:25;100143.69;;;5.74;58.58
68807;BME280;55800;54.272;18.558;2023-04-26T00:57:54;100138.28;;;5.77;58.87
68807;BME280;55800;54.272;18.558;2023-04-26T01:00:24;100142.56;;;5.81;58.32
68807;BME280;55800;54.272;18.558;2023-04-26T01:02:55;100150.72;;;5.75;59.06
68807;BME280;55800;54.272;18.558;2023-04-26T01:05:24;100149.06;;;5.71;59.33
68807;BME280;55800;54.272;18.558;2023-04-26T01:07:54;100151.72;;;5.71;59.68
68807;BME280;55800;54.272;18.558;2023-04-26T01:10:23;100143.81;;;5.70;58.74
68807;BME280;55800;54.272;18.558;2023-04-26T01:12:53;100150.03;;;5.69;59.07
68807;BME280;55800;54.272;18.558;2023-04-26T01:15:22;100152.47;;;5.76;58.92
68807;BME280;55800;54.272;18.558;2023-04-26T01:17:51;100153.28;;;5.78;59.53
68807;BME280;55800;54.272;18.558;2023-04-26T01:20:21;100154.16;;;5.79;59.41
68807;BME280;55800;54.272;18.558;2023-04-26T01:22:52;100154.06;;;5.82;59.66
68807;BME280;55800;54.272;18.558;2023-04-26T01:25:21;100148.69;;;5.83;59.21
68807;BME280;55800;54.272;18.558;2023-04-26T01:27:50;100148.69;;;5.83;59.57
68807;BME280;55800;54.272;18.558;2023-04-26T01:30:19;100145.81;;;5.92;59.83
68807;BME280;55800;54.272;18.558;2023-04-26T01:32:48;100144.16;;;5.88;59.82
68807;BME280;55800;54.272;18.558;2023-04-26T01:35:17;100143.97;;;5.94;59.70
68807;BME280;55800;54.272;18.558;2023-04-26T01:37:47;100146.50;;;5.99;59.27
68807;BME280;55800;54.272;18.558;2023-04-26T01:40:18;100149.41;;;5.91;59.93
68807;BME280;55800;54.272;18.558;2023-04-26T01:42:47;100152.03;;;5.91;59.42
68807;BME280;55800;54.272;18.558;2023-04-26T01:45:16;100146.31;;;6.05;59.45
68807;BME280;55800;54.272;18.558;2023-04-26T01:48:04;100149.63;;;6.11;59.56
68807;BME280;55800;54.272;18.558;2023-04-26T01:50:33;100145.25;;;6.10;59.36
68807;BME280;55800;54.272;18.558;2023-04-26T01:53:02;100145.16;;;6.13;59.66
68807;BME280;55800;54.272;18.558;2023-04-26T01:55:33;100142.56;;;6.12;58.91
68807;BME280;55800;54.272;18.558;2023-04-26T01:58:02;100147.19;;;6.05;59.53
68807;BME280;55800;54.272;18.558;2023-04-26T02:00:33;100144.19;;;6.16;59.91
68807;BME280;55800;54.272;18.558;2023-04-26T02:03:01;100147.47;;;6.24;58.79
68807;BME280;55800;54.272;18.558;2023-04-26T02:05:31;100149.97;;;6.28;59.39
68807;BME280;55800;54.272;18.558;2023-04-26T02:08:00;100147.56;;;6.21;58.61
68807;BME280;55800;54.272;18.558;2023-04-26T02:10:29;100146.69;;;6.20;59.67
68807;BME280;55800;54.272;18.558;2023-04-26T02:13:00;100137.63;;;6.27;59.04
68807;BME280;55800;54.272;18.558;2023-04-26T02:15:29;100142.81;;;6.30;58.44
68807;BME280;55800;54.272;18.558;2023-04-26T02:17:58;100146.31;;;6.32;59.22
68807;BME280;55800;54.272;18.558;2023-04-26T02:20:27;100137.31;;;6.37;59.13
68807;BME280;55800;54.272;18.558;2023-04-26T02:22:56;100136.34;;;6.39;59.38
68807;BME280;55800;54.272;18.558;2023-04-26T02:25:25;100142.53;;;6.40;59.23
68807;BME280;55800;54.272;18.558;2023-04-26T02:27:54;100138.88;;;6.44;59.49
68807;BME280;55800;54.272;18.558;2023-04-26T02:33:49;100147.84;;;6.40;59.71
68807;BME280;55800;54.272;18.558;2023-04-26T02:36:18;100135.59;;;6.36;59.84
68807;BME280;55800;54.272;18.558;2023-04-26T02:38:47;100142.59;;;6.38;59.74
68807;BME280;55800;54.272;18.558;2023-04-26T02:41:17;100138.09;;;6.40;59.78
68807;BME280;55800;54.272;18.558;2023-04-26T02:43:47;100142.53;;;6.40;60.10
68807;BME280;55800;54.272;18.558;2023-04-26T02:46:16;100146.22;;;6.36;60.17
68807;BME280;55800;54.272;18.558;2023-04-26T02:48:45;100143.44;;;6.39;60.41
68807;BME280;55800;54.272;18.558;2023-04-26T02:51:15;100142.53;;;6.40;60.06
68807;BME280;55800;54.272;18.558;2023-04-26T02:53:44;100138.03;;;6.42;59.99
68807;BME280;55800;54.272;18.558;2023-04-26T02:56:13;100133.63;;;6.42;59.97
68807;BME280;55800;54.272;18.558;2023-04-26T02:58:42;100140.75;;;6.40;60.50
68807;BME280;55800;54.272;18.558;2023-04-26T03:01:11;100140.69;;;6.42;60.16
68807;BME280;55800;54.272;18.558;2023-04-26T03:03:42;100147.91;;;6.38;60.40
68807;BME280;55800;54.272;18.558;2023-04-26T03:06:11;100139.94;;;6.38;60.57
68807;BME280;55800;54.272;18.558;2023-04-26T03:08:41;100139.75;;;6.43;60.20
68807;BME280;55800;54.272;18.558;2023-04-26T03:11:10;100147.66;;;6.46;60.10
68807;BME280;55800;54.272;18.558;2023-04-26T03:13:39;100141.47;;;6.45;59.99
68807;BME280;55800;54.272;18.558;2023-04-26T03:16:09;100149.56;;;6.41;60.27
68807;BME280;55800;54.272;18.558;2023-04-26T03:18:38;100141.56;;;6.42;59.84
68807;BME280;55800;54.272;18.558;2023-04-26T03:21:08;100139.75;;;6.44;60.13
68807;BME280;55800;54.272;18.558;2023-04-26T03:23:38;100147.66;;;6.46;60.10
68807;BME280;55800;54.272;18.558;2023-04-26T03:26:09;100148.59;;;6.43;60.37
68807;BME280;55800;54.272;18.558;2023-04-26T03:28:38;100147.72;;;6.43;60.33
68807;BME280;55800;54.272;18.558;2023-04-26T03:31:07;100145.06;;;6.44;60.31
68807;BME280;55800;54.272;18.558;2023-04-26T03:33:36;100153.03;;;6.43;59.91
68807;BME280;55800;54.272;18.558;2023-04-26T03:36:05;100151.25;;;6.43;60.25
68807;BME280;55800;54.272;18.558;2023-04-26T03:38:35;100153.91;;;6.43;60.26
68807;BME280;55800;54.272;18.558;2023-04-26T03:41:04;100146.00;;;6.42;60.37
68807;BME280;55800;54.272;18.558;2023-04-26T03:43:34;100154.03;;;6.40;60.39
68807;BME280;55800;54.272;18.558;2023-04-26T03:46:04;100159.22;;;6.43;60.50
68807;BME280;55800;54.272;18.558;2023-04-26T03:48:33;100159.16;;;6.46;60.39
68807;BME280;55800;54.272;18.558;2023-04-26T03:51:02;100156.72;;;6.39;60.59
68807;BME280;55800;54.272;18.558;2023-04-26T03:53:31;100162.22;;;6.32;60.68
68807;BME280;55800;54.272;18.558;2023-04-26T03:56:01;100170.13;;;6.34;60.79
68807;BME280;55800;54.272;18.558;2023-04-26T03:58:32;100168.28;;;6.38;60.60
68807;BME280;55800;54.272;18.558;2023-04-26T04:01:03;100172.56;;;6.42;60.33
68807;BME280;55800;54.272;18.558;2023-04-26T04:03:32;100171.81;;;6.38;60.52
68807;BME280;55800;54.272;18.558;2023-04-26T04:06:04;100174.47;;;6.37;60.85
68807;BME280;55800;54.272;18.558;2023-04-26T04:08:33;100174.47;;;6.37;60.66
68807;BME280;55800;54.272;18.558;2023-04-26T04:11:03;100178.91;;;6.38;60.71
68807;BME280;55800;54.272;18.558;2023-04-26T04:13:35;100174.41;;;6.40;60.80
68807;BME280;55800;54.272;18.558;2023-04-26T04:16:06;100177.88;;;6.42;60.38
68807;BME280;55800;54.272;18.558;2023-04-26T04:18:36;100182.22;;;6.44;60.15
68807;BME280;55800;54.272;18.558;2023-04-26T04:21:06;100177.88;;;6.42;60.66
68807;BME280;55800;54.272;18.558;2023-04-26T04:23:35;100186.75;;;6.41;60.46
68807;BME280;55800;54.272;18.558;2023-04-26T04:26:08;100174.41;;;6.40;60.87
68807;BME280;55800;54.272;18.558;2023-04-26T04:28:39;100182.31;;;6.41;60.69
68807;BME280;55800;54.272;18.558;2023-04-26T04:31:10;100181.44;;;6.41;60.39
68807;BME280;55800;54.272;18.558;2023-04-26T04:33:40;100178.84;;;6.39;60.76
68807;BME280;55800;54.272;18.558;2023-04-26T04:36:11;100185.91;;;6.40;60.40
68807;BME280;55800;54.272;18.558;2023-04-26T04:38:45;100184.06;;;6.42;60.61
68807;BME280;55800;54.272;18.558;2023-04-26T04:41:16;100183.19;;;6.42;60.59
68807;BME280;55800;54.272;18.558;2023-04-26T04:43:45;100180.47;;;6.43;60.82
68807;BME280;55800;54.272;18.558;2023-04-26T04:46:15;100183.94;;;6.45;60.65
68807;BME280;55800;54.272;18.558;2023-04-26T04:48:44;100185.06;;;6.38;60.90
68807;BME280;55800;54.272;18.558;2023-04-26T04:51:14;100188.50;;;6.42;60.71
68807;BME280;55800;54.272;18.558;2023-04-26T04:53:42;100191.88;;;6.47;60.71
68807;BME280;55800;54.272;18.558;2023-04-26T04:56:12;100190.88;;;6.49;61.10
68807;BME280;55800;54.272;18.558;2023-04-26T04:58:42;100191.75;;;6.50;60.64
68807;BME280;55800;54.272;18.558;2023-04-26T05:01:11;100189.06;;;6.51;61.11
68807;BME280;55800;54.272;18.558;2023-04-26T05:03:49;100200.47;;;6.55;61.01
68807;BME280;55800;54.272;18.558;2023-04-26T05:06:19;100199.53;;;6.56;60.99
68807;BME280;55800;54.272;18.558;2023-04-26T05:08:49;100203.13;;;6.55;61.33
68807;BME280;55800;54.272;18.558;2023-04-26T05:11:19;100200.50;;;6.53;61.19
68807;BME280;55800;54.272;18.558;2023-04-26T05:13:48;100207.50;;;6.56;61.08
68807;BME280;55800;54.272;18.558;2023-04-26T05:16:20;100208.56;;;6.50;61.28
68807;BME280;55800;54.272;18.558;2023-04-26T05:18:51;100211.16;;;6.52;61.33
68807;BME280;55800;54.272;18.558;2023-04-26T05:21:20;100207.63;;;6.53;61.30
68807;BME280;55800;54.272;18.558;2023-04-26T05:23:49;100210.28;;;6.53;61.18
68807;BME280;55800;54.272;18.558;2023-04-26T05:26:19;100215.66;;;6.50;61.29
68807;BME280;55800;54.272;18.558;2023-04-26T05:29:12;100211.97;;;6.55;61.17
68807;BME280;55800;54.272;18.558;2023-04-26T05:32:04;100210.84;;;6.62;60.81
68807;BME280;55800;54.272;18.558;2023-04-26T05:34:41;100211.56;;;6.67;60.57
68807;BME280;55800;54.272;18.558;2023-04-26T05:37:15;100206.19;;;6.69;61.00
68807;BME280;55800;54.272;18.558;2023-04-26T05:39:44;100203.47;;;6.70;60.93
68807;BME280;55800;54.272;18.558;2023-04-26T05:42:14;100202.66;;;6.68;60.97
68807;BME280;55800;54.272;18.558;2023-04-26T05:44:45;100214.06;;;6.72;60.97
68807;BME280;55800;54.272;18.558;2023-04-26T05:47:14;100215.72;;;6.76;61.04
68807;BME280;55800;54.272;18.558;2023-04-26T05:49:44;100217.22;;;6.83;60.60
68807;BME280;55800;54.272;18.558;2023-04-26T05:52:14;100215.56;;;6.80;60.84
68807;BME280;55800;54.272;18.558;2023-04-26T05:54:42;100222.44;;;6.86;61.01
68807;BME280;55800;54.272;18.558;2023-04-26T05:57:12;100226.69;;;6.91;60.99
68807;BME280;55800;54.272;18.558;2023-04-26T05:59:41;100221.13;;;6.99;60.64
68807;BME280;55800;54.272;18.558;2023-04-26T06:02:10;100221.84;;;7.04;61.19
68807;BME280;55800;54.272;18.558;2023-04-26T06:04:39;100213.59;;;7.12;60.67
68807;BME280;55800;54.272;18.558;2023-04-26T06:07:17;100223.25;;;7.14;60.62
68807;BME280;55800;54.272;18.558;2023-04-26T06:09:47;100228.38;;;7.20;60.94
68807;BME280;55800;54.272;18.558;2023-04-26T06:12:16;100221.00;;;7.28;60.23
68807;BME280;55800;54.272;18.558;2023-04-26T06:14:46;100224.69;;;7.24;60.02
68807;BME280;55800;54.272;18.558;2023-04-26T06:17:19;100230.09;;;7.21;60.24
68807;BME280;55800;54.272;18.558;2023-04-26T06:19:48;100228.22;;;7.25;60.20
68807;BME280;55800;54.272;18.558;2023-04-26T06:22:19;100233.56;;;7.23;60.01
68807;BME280;55800;54.272;18.558;2023-04-26T06:24:49;100222.84;;;7.26;59.69
68807;BME280;55800;54.272;18.558;2023-04-26T06:27:18;100221.94;;;7.27;59.78
68807;BME280;55800;54.272;18.558;2023-04-26T06:29:48;100229.69;;;7.33;59.79
68807;BME280;55800;54.272;18.558;2023-04-26T06:32:19;100219.88;;;7.35;59.89
68807;BME280;55800;54.272;18.558;2023-04-26T06:34:48;100231.16;;;7.42;59.90
68807;BME280;55800;54.272;18.558;2023-04-26T06:37:19;100220.31;;;7.48;59.96
68807;BME280;55800;54.272;18.558;2023-04-26T06:39:48;100217.41;;;7.54;59.54
68807;BME280;55800;54.272;18.558;2023-04-26T06:42:17;100212.84;;;7.57;59.39
68807;BME280;55800;54.272;18.558;2023-04-26T06:45:17;100215.34;;;7.62;59.46
68807;BME280;55800;54.272;18.558;2023-04-26T06:47:47;100225.09;;;7.61;59.07
68807;BME280;55800;54.272;18.558;2023-04-26T06:50:19;100225.81;;;7.66;59.09
68807;BME280;55800;54.272;18.558;2023-04-26T06:52:49;100215.91;;;7.71;58.72
68807;BME280;55800;54.272;18.558;2023-04-26T06:55:18;100213.22;;;7.71;58.59
68807;BME280;55800;54.272;18.558;2023-04-26T06:57:48;100225.56;;;7.74;58.70
68807;BME280;55800;54.272;18.558;2023-04-26T07:00:17;100221.91;;;7.76;58.47
68807;BME280;55800;54.272;18.558;2023-04-26T07:02:46;100218.25;;;7.79;58.33
68807;BME280;55800;54.272;18.558;2023-04-26T07:05:16;100228.91;;;7.79;58.31
68807;BME280;55800;54.272;18.558;2023-04-26T07:07:45;100240.47;;;7.78;57.47
68807;BME280;55800;54.272;18.558;2023-04-26T07:10:16;100238.50;;;7.83;58.16
68807;BME280;55800;54.272;18.558;2023-04-26T07:12:45;100231.50;;;7.80;57.66
68807;BME280;55800;54.272;18.558;2023-04-26T07:15:14;100234.88;;;7.85;57.95
68807;BME280;55800;54.272;18.558;2023-04-26T07:17:43;100238.25;;;7.91;57.88
68807;BME280;55800;54.272;18.558;2023-04-26T07:20:12;100235.34;;;7.97;57.80
68807;BME280;55800;54.272;18.558;2023-04-26T07:22:46;100236.91;;;8.02;57.46
68807;BME280;55800;54.272;18.558;2023-04-26T07:25:17;100244.72;;;8.07;57.88
68807;BME280;55800;54.272;18.558;2023-04-26T07:27:47;100238.41;;;8.09;57.69
68807;BME280;55800;54.272;18.558;2023-04-26T07:30:18;100239.06;;;8.16;57.59
68807;BME280;55800;54.272;18.558;2023-04-26T07:32:47;100232.56;;;8.23;57.32
68807;BME280;55800;54.272;18.558;2023-04-26T07:35:16;100227.97;;;8.28;57.35
68807;BME280;55800;54.272;18.558;2023-04-26T07:37:46;100241.16;;;8.31;57.30
68807;BME280;55800;54.272;18.558;2023-04-26T07:40:15;100249.25;;;8.28;56.94
68807;BME280;55800;54.272;18.558;2023-04-26T07:42:47;100245.63;;;8.30;56.74
68807;BME280;55800;54.272;18.558;2023-04-26T07:45:16;100247.31;;;8.33;56.35
68807;BME280;55800;54.272;18.558;2023-04-26T07:47:46;100255.41;;;8.30;56.54
68807;BME280;55800;54.272;18.558;2023-04-26T07:50:15;100244.47;;;8.37;56.53
68807;BME280;55800;54.272;18.558;2023-04-26T07:52:45;100251.44;;;8.40;56.40
68807;BME280;55800;54.272;18.558;2023-04-26T07:55:14;100251.22;;;8.46;56.48
68807;BME280;55800;54.272;18.558;2023-04-26T07:57:44;100252.78;;;8.51;56.60
68807;BME280;55800;54.272;18.558;2023-04-26T08:00:15;100253.66;;;8.52;56.42
68807;BME280;55800;54.272;18.558;2023-04-26T08:02:45;100253.75;;;8.49;56.33
68807;BME280;55800;54.272;18.558;2023-04-26T08:05:14;100260.88;;;8.48;56.14
68807;BME280;55800;54.272;18.558;2023-04-26T08:07:44;100251.91;;;8.51;56.56
68807;BME280;55800;54.272;18.558;2023-04-26T08:10:13;100260.59;;;8.56;56.65
68807;BME280;55800;54.272;18.558;2023-04-26T08:12:43;100264.16;;;8.55;56.41
68807;BME280;55800;54.272;18.558;2023-04-26T08:15:12;100259.00;;;8.50;56.39
68807;BME280;55800;54.272;18.558;2023-04-26T08:17:43;100268.22;;;8.42;56.29
68807;BME280;55800;54.272;18.558;2023-04-26T08:20:13;100257.78;;;8.37;56.38
68807;BME280;55800;54.272;18.558;2023-04-26T08:22:43;100261.28;;;8.38;56.61
68807;BME280;55800;54.272;18.558;2023-04-26T08:25:12;100271.03;;;8.39;56.74
68807;BME280;55800;54.272;18.558;2023-04-26T08:27:41;100261.28;;;8.38;56.50
68807;BME280;55800;54.272;18.558;2023-04-26T08:30:11;100260.44;;;8.37;56.65
68807;BME280;55800;54.272;18.558;2023-04-26T08:32:41;100263.09;;;8.37;56.47
68807;BME280;55800;54.272;18.558;2023-04-26T08:35:11;100254.25;;;8.37;56.75
68807;BME280;55800;54.272;18.558;2023-04-26T08:37:41;100271.22;;;8.34;56.65
68807;BME280;55800;54.272;18.558;2023-04-26T08:40:09;100265.06;;;8.32;56.94
68807;BME280;55800;54.272;18.558;2023-04-26T08:42:39;100261.28;;;8.38;56.91
68807;BME280;55800;54.272;18.558;2023-04-26T08:45:10;100270.06;;;8.41;56.92
68807;BME280;55800;54.272;18.558;2023-04-26T08:47:42;100275.06;;;8.49;56.92
68807;BME280;55800;54.272;18.558;2023-04-26T08:50:14;100270.63;;;8.49;56.54
68807;BME280;55800;54.272;18.558;2023-04-26T08:52:43;100270.44;;;8.54;56.90
68807;BME280;55800;54.272;18.558;2023-04-26T08:55:15;100278.28;;;8.57;57.27
68807;BME280;55800;54.272;18.558;2023-04-26T08:57:46;100293.94;;;8.66;56.92
68807;BME280;55800;54.272;18.558;2023-04-26T09:00:16;100281.78;;;8.59;56.49
68807;BME280;55800;54.272;18.558;2023-04-26T09:02:47;100288.38;;;8.49;56.50
68807;BME280;55800;54.272;18.558;2023-04-26T09:05:19;100280.47;;;8.47;57.03
68807;BME280;55800;54.272;18.558;2023-04-26T09:07:53;100292.09;;;8.45;57.16
68807;BME280;55800;54.272;18.558;2023-04-26T09:10:24;100293.78;;;8.47;56.88
68807;BME280;55800;54.272;18.558;2023-04-26T09:12:53;100300.97;;;8.45;56.99
68807;BME280;55800;54.272;18.558;2023-04-26T09:15:24;100301.72;;;8.49;57.26
68807;BME280;55800;54.272;18.558;2023-04-26T09:17:54;100300.41;;;8.59;57.30
68807;BME280;55800;54.272;18.558;2023-04-26T09:20:24;100300.06;;;8.68;57.45
68807;BME280;55800;54.272;18.558;2023-04-26T09:23:02;100311.44;;;8.73;57.65
68807;BME280;55800;54.272;18.558;2023-04-26T09:25:31;100300.25;;;8.63;57.66
68807;BME280;55800;54.272;18.558;2023-04-26T09:28:01;100302.91;;;8.63;57.79
68807;BME280;55800;54.272;18.558;2023-04-26T09:30:35;100307.56;;;8.58;57.77
68807;BME280;55800;54.272;18.558;2023-04-26T09:33:06;100306.34;;;8.67;57.84
68807;BME280;55800;54.272;18.558;2023-04-26T09:35:38;100310.38;;;8.77;58.19
68807;BME280;55800;54.272;18.558;2023-04-26T09:38:08;100307.00;;;8.72;58.32
68807;BME280;55800;54.272;18.558;2023-04-26T09:40:41;100314.34;;;8.67;58.69
68807;BME280;55800;54.272;18.558;2023-04-26T09:43:11;100312.66;;;8.64;58.86
68807;BME280;55800;54.272;18.558;2023-04-26T09:45:44;100318.63;;;8.71;58.78
68807;BME280;55800;54.272;18.558;2023-04-26T09:48:15;100322.19;;;8.70;58.72
68807;BME280;55800;54.272;18.558;2023-04-26T09:50:45;100338.19;;;8.70;58.67
68807;BME280;55800;54.272;18.558;2023-04-26T09:53:27;100325.34;;;8.58;58.71
68807;BME280;55800;54.272;18.558;2023-04-26T09:56:04;100332.63;;;8.53;59.27
68807;BME280;55800;54.272;18.558;2023-04-26T09:58:35;100334.16;;;8.37;59.55
68807;BME280;55800;54.272;18.558;2023-04-26T10:01:04;100339.56;;;8.34;59.58
68807;BME280;55800;54.272;18.558;2023-04-26T10:03:35;100339.81;;;8.28;59.72
68807;BME280;55800;54.272;18.558;2023-04-26T10:06:06;100341.66;;;8.26;59.93
68807;BME280;55800;54.272;18.558;2023-04-26T10:08:35;100350.81;;;8.17;60.53
68807;BME280;55800;54.272;18.558;2023-04-26T10:11:04;100352.50;;;8.20;60.65
68807;BME280;55800;54.272;18.558;2023-04-26T10:13:35;100359.69;;;8.18;60.99
68807;BME280;55800;54.272;18.558;2023-04-26T10:16:04;100370.97;;;8.26;61.17
68807;BME280;55800;54.272;18.558;2023-04-26T10:18:34;100360.31;;;8.26;60.80
68807;BME280;55800;54.272;18.558;2023-04-26T10:21:04;100357.13;;;8.15;60.41
68807;BME280;55800;54.272;18.558;2023-04-26T10:23:36;100376.72;;;8.12;60.58
68807;BME280;55800;54.272;18.558;2023-04-26T10:26:06;100377.50;;;8.16;59.94
68807;BME280;55800;54.272;18.558;2023-04-26T10:28:53;100364.19;;;8.16;59.54
68807;BME280;55800;54.272;18.558;2023-04-26T10:34:17;100362.97;;;8.26;59.41
68807;BME280;55800;54.272;18.558;2023-04-26T10:39:39;100373.28;;;8.35;59.38
68807;BME280;55800;54.272;18.558;2023-04-26T10:42:19;100371.84;;;8.49;59.57
68807;BME280;55800;54.272;18.558;2023-04-26T10:44:53;100366.84;;;8.65;58.62
68807;BME280;55800;54.272;18.558;2023-04-26T10:47:26;100365.53;;;8.75;59.02
68807;BME280;55800;54.272;18.558;2023-04-26T10:50:06;100376.66;;;8.86;58.62
68807;BME280;55800;54.272;18.558;2023-04-26T10:52:38;100367.56;;;8.92;57.83
68807;BME280;55800;54.272;18.558;2023-04-26T10:55:38;100379.66;;;9.00;57.79
68807;BME280;55800;54.272;18.558;2023-04-26T10:58:24;100381.38;;;9.01;57.14
68807;BME280;55800;54.272;18.558;2023-04-26T11:01:04;100386.03;;;8.96;56.71
68807;BME280;55800;54.272;18.558;2023-04-26T11:03:34;100383.22;;;8.99;56.84
68807;BME280;55800;54.272;18.558;2023-04-26T11:06:05;100383.13;;;9.02;56.56
68807;BME280;55800;54.272;18.558;2023-04-26T11:08:40;100387.34;;;9.08;56.88
68807;BME280;55800;54.272;18.558;2023-04-26T11:11:11;100386.91;;;9.18;56.56
68807;BME280;55800;54.272;18.558;2023-04-26T11:13:50;100400.03;;;9.24;56.41
68807;BME280;55800;54.272;18.558;2023-04-26T11:16:22;100391.00;;;9.27;56.30
68807;BME280;55800;54.272;18.558;2023-04-26T11:18:54;100389.22;;;9.27;55.97
68807;BME280;55800;54.272;18.558;2023-04-26T11:21:24;100373.09;;;9.30;54.87
68807;BME280;55800;54.272;18.558;2023-04-26T11:23:53;100388.53;;;9.44;55.83
68807;BME280;55800;54.272;18.558;2023-04-26T11:26:32;100401.19;;;9.61;55.12
68807;BME280;55800;54.272;18.558;2023-04-26T11:29:02;100399.63;;;9.77;55.18
68807;BME280;55800;54.272;18.558;2023-04-26T11:31:32;100400.84;;;9.90;54.69
68807;BME280;55800;54.272;18.558;2023-04-26T11:34:05;100395.25;;;9.96;54.12
68807;BME280;55800;54.272;18.558;2023-04-26T11:36:35;100411.81;;;10.04;54.38
68807;BME280;55800;54.272;18.558;2023-04-26T11:39:05;100408.84;;;10.11;52.92
68807;BME280;55800;54.272;18.558;2023-04-26T11:41:37;100417.44;;;10.18;52.39
68807;BME280;55800;54.272;18.558;2023-04-26T11:44:06;100399.69;;;10.17;51.52
68807;BME280;55800;54.272;18.558;2023-04-26T11:46:37;100406.56;;;10.23;51.65
68807;BME280;55800;54.272;18.558;2023-04-26T11:49:06;100389.22;;;10.33;50.06
68807;BME280;55800;54.272;18.558;2023-04-26T11:51:36;100424.00;;;10.31;50.15
68807;BME280;55800;54.272;18.558;2023-04-26T11:54:08;100407.84;;;10.34;49.74
68807;BME280;55800;54.272;18.558;2023-04-26T11:56:40;100401.31;;;10.41;49.31
68807;BME280;55800;54.272;18.558;2023-04-26T11:59:10;100386.06;;;10.43;48.29
68807;BME280;55800;54.272;18.558;2023-04-26T12:01:39;100407.84;;;10.34;47.66
68807;BME280;55800;54.272;18.558;2023-04-26T12:04:18;100411.50;;;10.32;48.00
68807;BME280;55800;54.272;18.558;2023-04-26T12:06:48;100395.69;;;10.27;48.35
68807;BME280;55800;54.272;18.558;2023-04-26T12:09:22;100421.78;;;10.20;48.05
68807;BME280;55800;54.272;18.558;2023-04-26T12:11:55;100419.13;;;10.20;46.92
68807;BME280;55800;54.272;18.558;2023-04-26T12:14:29;100426.13;;;10.23;46.45
68807;BME280;55800;54.272;18.558;2023-04-26T12:17:02;100425.72;;;10.12;45.09
68807;BME280;55800;54.272;18.558;2023-04-26T12:19:33;100430.94;;;10.15;45.64
68807;BME280;55800;54.272;18.558;2023-04-26T12:22:05;100426.88;;;10.27;46.84
68807;BME280;55800;54.272;18.558;2023-04-26T12:24:34;100433.84;;;10.31;45.44
68807;BME280;55800;54.272;18.558;2023-04-26T12:27:07;100432.69;;;10.36;46.06
68807;BME280;55800;54.272;18.558;2023-04-26T12:29:37;100435.97;;;10.43;45.11
68807;BME280;55800;54.272;18.558;2023-04-26T12:32:09;100437.63;;;10.45;45.82
68807;BME280;55800;54.272;18.558;2023-04-26T12:34:38;100443.97;;;10.43;44.71
68807;BME280;55800;54.272;18.558;2023-04-26T12:37:16;100459.94;;;10.44;45.71
68807;BME280;55800;54.272;18.558;2023-04-26T12:39:46;100462.63;;;10.44;46.34
68807;BME280;55800;54.272;18.558;2023-04-26T12:42:19;100457.28;;;10.44;46.42
68807;BME280;55800;54.272;18.558;2023-04-26T12:44:50;100475.25;;;10.41;46.74
68807;BME280;55800;54.272;18.558;2023-04-26T12:47:21;100469.94;;;10.39;46.97
68807;BME280;55800;54.272;18.558;2023-04-26T12:49:50;100469.31;;;10.34;46.80
68807;BME280;55800;54.272;18.558;2023-04-26T12:52:25;100470.09;;;10.36;46.51
68807;BME280;55800;54.272;18.558;2023-04-26T12:54:54;100457.94;;;10.29;46.54
68807;BME280;55800;54.272;18.558;2023-04-26T12:57:25;100474.16;;;10.25;46.43
68807;BME280;55800;54.272;18.558;2023-04-26T12:59:54;100474.22;;;10.23;45.17
68807;BME280;55800;54.272;18.558;2023-04-26T13:02:23;100484.03;;;10.23;46.12
68807;BME280;55800;54.272;18.558;2023-04-26T13:04:52;100474.94;;;10.27;46.11
68807;BME280;55800;54.272;18.558;2023-04-26T13:07:22;100466.22;;;10.23;45.99
68807;BME280;55800;54.272;18.558;2023-04-26T13:09:51;100474.75;;;10.31;45.28
68807;BME280;55800;54.272;18.558;2023-04-26T13:12:20;100478.31;;;10.32;44.64
68807;BME280;55800;54.272;18.558;2023-04-26T13:14:57;100469.94;;;10.39;45.39